Main page
METAR-TAF:

METAR-TAF

Airports :

Brive–Dordogne Valley Airport

Brive-la-Gaillarde, France

latitude: 45-02-28N, longitude: 001-28-59E, elevation: 311 m

Current weather observation

The report was made 31 minutes ago, at 03:00 UTC
Wind 2 kt from variable directions
Temperature 15°C
Humidity 100%
Pressure 1011 hPa
Visibility: 8000 m

METAR: LFSL 150300Z AUTO VRB02KT 8000 NSC 15/15 Q1011

Time: 05:31 (03:31 UTC)

Forecast

The report was made 1 hour and 31 minutes ago, at 02:00 UTC
Forecast valid from 15 at 03 UTC to 15 at 12 UTC
Wind 5 kt from the West/Southwest
Visibility 10 km or more
Broken clouds at a height of 4000 ft
Probability 40% :
Temporary
from 15 at 03 UTC to 15 at 05 UTC
Visibility: 4000 m
mist

TAF: LFSL 150200Z 1503/1512 24005KT 9999 BKN040 PROB40 TEMPO 1503/1505 4000 BR NSC

Weather observations and forecasts of more than 4000 airports (METAR and TAF reports).

The available stations are represented by yellow and red dots on the map.

Hover mouse over dot to see the name of the station.

Then click to see weather observations and forecasts.

To change the map : click on the green buttons with a black cross to zoom in, on the green button with a dash to zoom out, or on the green arrows for adjacent maps.


METAR-TAF: